SAN weather

San Diego International Airport
San Diego, California, United States

Public forecast

Using degrees Fahrenheit for public forecast. Weather courtesy of forecast.io.

Current aviation weather report (METAR) for San Diego International Airport

Retrieved 2020/04/01 10:51 UTC (13 minutes ago):

KSAN 011051Z COR 00000KT 9SM BKN006 BKN220 16/14 A2987 RMK AO2 SLP113 T01560144

Aviation forecast (TAF) for San Diego International Airport

Retrieved 2020/04/01 06:22 UTC (5 hours ago):

TAF KSAN 010520Z 0106/0212 VRB04KT P6SM FEW015 BKN250 FM011100 VRB04KT P6SM BKN015 FM011700 20010KT P6SM BKN020 TEMPO 0118/0122 SCT020 FM012300 23011KT P6SM BKN025 FM020300 VRB05KT P6SM BKN022